createdAt,value
2023-01-20T00:04:42.739Z,99501.55
2023-01-20T00:09:45.320Z,99506.42
2023-01-20T00:14:47.889Z,99512.27
2023-01-20T00:19:50.451Z,99520.24
2023-01-20T00:24:53.182Z,99523.05
2023-01-20T00:29:55.766Z,99524.80
2023-01-20T00:34:58.711Z,99526.75
2023-01-20T00:40:01.395Z,99533.99
2023-01-20T00:45:04.587Z,99540.25
2023-01-20T00:50:07.954Z,99538.89
2023-01-20T00:55:10.642Z,99544.42
2023-01-20T01:00:13.985Z,99548.09
2023-01-20T01:05:16.693Z,99545.11
2023-01-20T01:10:19.306Z,99546.27
2023-01-20T01:15:22.241Z,99551.67
2023-01-20T01:20:25.689Z,99554.71
2023-01-20T01:25:28.344Z,99551.80
2023-01-20T01:30:30.983Z,99552.20
2023-01-20T01:35:33.684Z,99557.38
2023-01-20T01:40:36.243Z,99563.45
2023-01-20T01:45:39.053Z,99573.81
2023-01-20T01:50:50.922Z,99588.11
2023-01-20T01:56:01.835Z,99595.06
2023-01-20T02:01:04.937Z,99603.98
2023-01-20T02:06:09.941Z,99612.45
2023-01-20T02:11:12.938Z,99617.48
2023-01-20T02:16:31.807Z,99622.03
2023-01-20T02:21:59.595Z,99618.73
2023-01-20T02:27:08.782Z,99618.95
2023-01-20T02:32:25.271Z,99624.25
2023-01-20T02:37:34.407Z,99625.11
2023-01-20T02:42:42.532Z,99627.96
2023-01-20T02:47:54.606Z,99626.54
2023-01-20T02:53:01.897Z,99630.30
2023-01-20T02:58:11.860Z,99630.30
2023-01-20T03:03:20.111Z,99631.42
2023-01-20T03:08:26.944Z,99633.99
2023-01-20T03:13:45.199Z,99641.48
2023-01-20T03:18:49.536Z,99646.75
2023-01-20T03:23:55.650Z,99646.11
2023-01-20T03:28:59.454Z,99654.69
2023-01-20T03:34:06.412Z,99659.48
2023-01-20T03:39:09.369Z,99658.80
2023-01-20T03:44:22.238Z,99668.48
2023-01-20T03:49:44.438Z,99677.38
2023-01-20T03:55:03.169Z,99684.63
2023-01-20T04:00:11.174Z,99690.83
2023-01-20T04:05:14.827Z,99689.77
2023-01-20T04:10:18.317Z,99692.31
2023-01-20T04:15:23.258Z,99697.19
2023-01-20T04:20:27.819Z,99705.38
2023-01-20T04:25:32.338Z,99716.01
2023-01-20T04:30:35.677Z,99714.59
2023-01-20T04:35:38.241Z,99715.48
2023-01-20T04:40:41.210Z,99715.89
2023-01-20T04:45:43.959Z,99708.83
2023-01-20T04:50:46.626Z,99708.36
2023-01-20T04:55:49.384Z,99698.33
2023-01-20T05:00:52.391Z,99700.77
2023-01-20T05:05:55.267Z,99705.67
2023-01-20T05:10:58.032Z,99712.17
2023-01-20T05:16:02.846Z,99723.29
2023-01-20T05:21:08.648Z,99732.80
2023-01-20T05:26:11.439Z,99744.84
2023-01-20T05:31:14.372Z,99750.51
2023-01-20T05:36:17.756Z,99763.16
2023-01-20T05:41:20.487Z,99777.74
2023-01-20T05:46:23.076Z,99786.06
2023-01-20T05:51:26.048Z,99796.04
2023-01-20T05:56:28.697Z,99811.80
2023-01-20T06:01:31.435Z,99825.70
2023-01-20T06:06:34.230Z,99836.11
2023-01-20T06:11:37.126Z,99846.17
2023-01-20T06:16:39.764Z,99857.50
2023-01-20T06:21:42.434Z,99865.69
2023-01-20T06:26:45.034Z,99868.16
2023-01-20T06:31:48.366Z,99879.31
2023-01-20T06:36:50.932Z,99892.79
2023-01-20T06:41:57.163Z,99901.27
2023-01-20T06:47:00.115Z,99916.14
2023-01-20T06:52:02.846Z,99932.48
2023-01-20T06:57:05.447Z,99944.48
2023-01-20T07:02:11.914Z,99959.11
2023-01-20T07:07:14.626Z,99967.46
2023-01-20T07:12:18.254Z,99975.70
2023-01-20T07:17:21.073Z,99984.77
2023-01-20T07:22:23.653Z,99999.68
2023-01-20T07:27:26.498Z,100014.83
2023-01-20T07:32:31.060Z,100023.16
2023-01-20T07:37:33.660Z,100031.16
2023-01-20T07:42:39.838Z,100041.55
2023-01-20T07:47:42.656Z,100043.89
2023-01-20T07:52:45.699Z,100044.50
2023-01-20T07:57:48.328Z,100049.92
2023-01-20T08:02:51.134Z,100053.23
2023-01-20T08:07:53.836Z,100057.36
2023-01-20T08:12:57.694Z,100062.41
2023-01-20T08:18:00.336Z,100064.23
2023-01-20T08:23:02.888Z,100069.19
2023-01-20T08:28:05.675Z,100074.77
2023-01-20T08:33:09.623Z,100071.16
2023-01-20T08:38:12.300Z,100066.48
2023-01-20T08:43:15.891Z,100071.61
2023-01-20T08:48:19.862Z,100084.19
2023-01-20T08:53:22.777Z,100095.88
2023-01-20T08:58:26.589Z,100099.60
2023-01-20T09:03:29.117Z,100101.36
2023-01-20T09:08:32.226Z,100104.39
2023-01-20T09:13:36.308Z,100103.23
2023-01-20T09:18:39.267Z,100107.55
2023-01-20T09:23:42.944Z,100117.02
2023-01-20T09:28:46.536Z,100123.23
2023-01-20T09:33:50.589Z,100119.33
2023-01-20T09:39:12.000Z,100122.28
2023-01-20T09:44:33.529Z,100120.52
2023-01-20T09:50:32.588Z,100118.86
2023-01-20T09:56:00.147Z,100118.81
2023-01-20T10:01:14.726Z,100117.73
2023-01-20T10:06:33.525Z,100114.44
2023-01-20T10:11:41.842Z,100114.88
2023-01-20T10:16:55.383Z,100124.52
2023-01-20T10:22:20.664Z,100130.27
2023-01-20T10:27:25.702Z,100136.04
2023-01-20T10:32:37.328Z,100139.17
2023-01-20T10:37:41.829Z,100139.88
2023-01-20T10:42:50.628Z,100145.05
2023-01-20T10:48:09.876Z,100156.59
2023-01-20T10:53:34.663Z,100157.73
2023-01-20T10:58:41.605Z,100164.50
2023-01-20T11:03:46.662Z,100173.58
2023-01-20T11:08:52.024Z,100178.75
2023-01-20T11:13:54.772Z,100196.38
2023-01-20T11:19:03.557Z,100215.95
2023-01-20T11:24:33.296Z,100211.48
2023-01-20T11:29:42.911Z,100213.05
2023-01-20T11:34:49.564Z,100213.30
2023-01-20T11:40:29.954Z,100212.09
2023-01-20T11:45:35.566Z,100218.12
2023-01-20T11:50:40.049Z,100225.70
2023-01-20T11:55:50.727Z,100227.58
2023-01-20T12:01:01.782Z,100223.22
2023-01-20T12:06:23.015Z,100234.30
2023-01-20T12:11:35.237Z,100237.75
2023-01-20T12:16:38.429Z,100232.16
2023-01-20T12:21:45.617Z,100237.81
2023-01-20T12:26:49.715Z,100236.86
2023-01-20T12:31:54.415Z,100242.97
2023-01-20T12:37:16.737Z,100253.42
2023-01-20T12:42:45.509Z,100258.77
2023-01-20T12:48:14.099Z,100267.91
2023-01-20T12:53:40.877Z,100275.04
2023-01-20T12:59:04.230Z,100285.71
2023-01-20T13:04:25.573Z,100292.91
2023-01-20T13:09:33.163Z,100303.86
2023-01-20T13:14:57.594Z,100312.67
2023-01-20T13:20:03.750Z,100318.09
2023-01-20T13:25:13.884Z,100322.27
2023-01-20T13:30:43.435Z,100330.83
2023-01-20T13:35:49.609Z,100339.46
2023-01-20T13:40:55.090Z,100341.05
2023-01-20T13:46:06.213Z,100342.02
2023-01-20T13:51:27.695Z,100345.71
2023-01-20T13:56:34.903Z,100353.21
2023-01-20T14:01:39.420Z,100349.21
2023-01-20T14:06:47.653Z,100353.18
2023-01-20T14:11:55.732Z,100363.25
2023-01-20T14:16:58.457Z,100370.12
2023-01-20T14:22:04.239Z,100367.86
2023-01-20T14:27:21.653Z,100369.75
2023-01-20T14:32:31.154Z,100376.98
2023-01-20T14:37:38.829Z,100380.71
2023-01-20T14:42:41.814Z,100386.02
2023-01-20T14:47:45.476Z,100385.04
2023-01-20T14:52:48.660Z,100393.96
2023-01-20T14:57:51.738Z,100401.82
2023-01-20T15:03:10.380Z,100413.19
2023-01-20T15:08:26.321Z,100412.65
2023-01-20T15:13:31.022Z,100417.13
2023-01-20T15:18:33.775Z,100421.05
2023-01-20T15:23:38.273Z,100426.28
2023-01-20T15:28:47.451Z,100427.02
2023-01-20T15:33:50.655Z,100440.50
2023-01-20T15:38:53.839Z,100452.64
2023-01-20T15:43:56.404Z,100466.09
2023-01-20T15:48:59.148Z,100470.78
2023-01-20T15:54:01.744Z,100474.55
2023-01-20T15:59:13.427Z,100467.28
2023-01-20T16:04:16.178Z,100473.73
2023-01-20T16:09:25.950Z,100490.21
2023-01-20T16:14:28.588Z,100505.04
2023-01-20T16:19:31.243Z,100517.96
2023-01-20T16:24:35.161Z,100523.21
2023-01-20T16:29:39.692Z,100528.34
2023-01-20T16:34:43.956Z,100540.61
2023-01-20T16:39:46.596Z,100551.70
2023-01-20T16:44:49.666Z,100561.67
2023-01-20T16:49:52.297Z,100566.16
2023-01-20T16:54:55.270Z,100576.06
2023-01-20T16:59:57.841Z,100586.64
2023-01-20T17:05:02.141Z,100592.80
2023-01-20T17:10:05.715Z,100597.88
2023-01-20T17:15:08.977Z,100600.89
2023-01-20T17:20:11.787Z,100607.12
2023-01-20T17:25:17.980Z,100616.13
2023-01-20T17:30:20.695Z,100627.20
2023-01-20T17:35:23.446Z,100632.92
2023-01-20T17:40:26.439Z,100631.79
2023-01-20T17:45:31.869Z,100632.24
2023-01-20T17:50:34.716Z,100632.77
2023-01-20T17:55:37.406Z,100635.42
2023-01-20T18:00:40.025Z,100640.41
2023-01-20T18:05:42.652Z,100646.10
2023-01-20T18:10:45.244Z,100644.70
2023-01-20T18:15:47.837Z,100639.80
2023-01-20T18:20:51.209Z,100645.14
2023-01-20T18:25:56.192Z,100643.08
2023-01-20T18:31:07.913Z,100643.64
2023-01-20T18:36:14.783Z,100646.06
2023-01-20T18:41:18.625Z,100649.89
2023-01-20T18:46:21.328Z,100660.62
2023-01-20T18:51:29.145Z,100664.77
2023-01-20T18:56:35.352Z,100667.00
2023-01-20T19:01:40.185Z,100670.31
2023-01-20T19:06:44.831Z,100669.02
2023-01-20T19:11:47.395Z,100671.52
2023-01-20T19:16:50.216Z,100682.66
2023-01-20T19:21:52.885Z,100684.13
2023-01-20T19:26:57.925Z,100688.52
2023-01-20T19:32:00.604Z,100706.56
2023-01-20T19:37:03.227Z,100709.96
2023-01-20T19:42:06.068Z,100715.34
2023-01-20T19:47:08.658Z,100715.38
2023-01-20T19:52:11.334Z,100716.23
2023-01-20T19:57:14.350Z,100726.55
2023-01-20T20:02:16.967Z,100726.86
2023-01-20T20:07:19.573Z,100732.25
2023-01-20T20:12:22.151Z,100737.77
2023-01-20T20:17:26.498Z,100740.79
2023-01-20T20:22:29.155Z,100737.06
2023-01-20T20:27:31.807Z,100737.42
2023-01-20T20:32:34.407Z,100739.56
2023-01-20T20:37:37.260Z,100737.69
2023-01-20T20:42:39.865Z,100739.48
2023-01-20T20:47:42.466Z,100744.55
2023-01-20T20:52:46.709Z,100753.30
2023-01-20T20:57:49.330Z,100759.55
2023-01-20T21:02:51.945Z,100769.21
2023-01-20T21:07:54.867Z,100772.61
2023-01-20T21:12:57.483Z,100771.05
2023-01-20T21:18:01.190Z,100770.33
2023-01-20T21:23:05.714Z,100765.12
2023-01-20T21:28:08.716Z,100764.88
2023-01-20T21:33:17.471Z,100769.77
2023-01-20T21:38:20.265Z,100774.14
2023-01-20T21:43:42.386Z,100783.98
2023-01-20T21:49:03.842Z,100790.30
2023-01-20T21:54:06.516Z,100787.94
2023-01-20T21:59:10.035Z,100784.20
2023-01-20T22:04:12.639Z,100789.67
2023-01-20T22:09:15.227Z,100790.62
2023-01-20T22:14:17.990Z,100803.34
2023-01-20T22:19:20.561Z,100809.27
2023-01-20T22:24:23.203Z,100807.57
2023-01-20T22:29:25.915Z,100806.67
2023-01-20T22:34:28.984Z,100806.90
2023-01-20T22:39:31.699Z,100808.19
2023-01-20T22:44:34.610Z,100802.98
2023-01-20T22:49:37.261Z,100799.13
2023-01-20T22:54:39.911Z,100796.91
2023-01-20T22:59:42.536Z,100800.38
2023-01-20T23:04:45.147Z,100799.77
2023-01-20T23:09:47.811Z,100793.13
2023-01-20T23:15:09.092Z,100795.73
2023-01-20T23:20:12.050Z,100785.27
2023-01-20T23:25:14.951Z,100789.36
2023-01-20T23:30:18.269Z,100790.41
2023-01-20T23:35:21.227Z,100789.91
2023-01-20T23:40:24.601Z,100788.20
2023-01-20T23:45:28.767Z,100786.44
2023-01-20T23:50:31.407Z,100790.42
2023-01-20T23:55:36.963Z,100789.40
